Shell Knob, MO (65747)

05:54 PM CDT del 19 Aprile 2015 (GMT -0500)
APRSWXNET | | Change Station
CLOSE
Current Station
Stazione meteo personale
Location: Lampe, MO
Altitudine: 956 ft
Stazioni meteo nelle vicinanze

Alt. 956 ft 36.57 °N, 93.50 °W | Updated 51 minutes ago

Parzialmente nuvoloso
Parzialmente nuvoloso
65 °F
Sembra 65 °F
N
7
Vento Variabile Vento da ONO
Gusts 12.0 mph

Oggi
Massima -- | Minima -- °F
--% Possibilità di precip.
Ieri
Massima -- | Minima -- °F
Precip. -- in
6:35 AM 7:51 PM
Luna nuova, 2% visible
Pressione 29.60 in
Visibilità 10.0 miglia
Nuvole Alcuni 10000 ft
Punto di rugiada 52 °F
Umidità 63%
Piovosità in
Spessore del manto nevoso Non disponibile.
Raggi UV 2 fuori da 12
Polline 8.60 fuori da 12
Qualità dell'aria Non disponibile.
Flu Activity Local Activity
METAR KFWB 192235Z AUTO 29007KT 10SM FEW100 19/09 A2960 RMK AO2 LTG DSNT N AND SE

More Conditions Fewer Conditions

Pressione 29.60 in
Visibilità 10.0 miglia
Nuvole Alcuni 10000 ft
Punto di rugiada 52 °F
Umidità 63%
Piovosità in
Spessore del manto nevoso Non disponibile.
Raggi UV 2 fuori da 12
Polline 8.60 fuori da 12
Qualità dell'aria Non disponibile.
Flu Activity Local Activity
METAR KFWB 192235Z AUTO 29007KT 10SM FEW100 19/09 A2960 RMK AO2 LTG DSNT N AND SE

More Conditions Fewer Conditions

10-Day Weather Forecast

Almanac

Astronomia

Apr. 19, 2015 Alba Tramonto
Ora attuale
Crepuscolo civile
Crepuscolo nautico
Crepuscolo astronomico
Luna
Estensione della luce visibile
Lunghezza del giorno
Tomorrow will be .
, % of the Moon is Illuminated

Gli estremi di oggi

State Highs State Lows

Community

WunderPhotos

Upload Photos

1,815,009 foto caricate!

WunderBlogs® & News

Nearby

Qualità dell'aria

  Qualità dell'aria Indice AQ Inquinante
Not available.

Profondità neve

Stazione Profondità Altitudine

Attività sismica

Città  Distanza Mag. Data & Ora
Minimo Magnitudo Mostrato è 2.5.

Temperature delle acque costiere

Località Temperatura

Stations

Stazioni meteo nelle vicinanze

Ubicazione della stazione Temp. Raffreddamento del vento Punto di rugiada Umidità Vento Precip. Alt. Aggiornato Tipo